Time;durP1;ratioP1;P1;durP2;ratioP2;P2;SDS_P1;SDS_P2;PMS_P1;PMS_P2;Temp;Humidity;BMP_temperature;BMP_pressure;BME280_temperature;BME280_humidity;BME280_pressure;Samples;Min_cycle;Max_cycle;Signal;HPM_P1;HPM_P2
2022/12/09 00:00:22;;;;;;;26.80;15.43;;;2.80;99.90;;;;;;7374611;32;20102;-60
2022/12/09 00:04:24;;;;;;;29.15;17.00;;;2.90;99.90;;;;;;7375477;32;20269;-61
2022/12/09 00:08:26;;;;;;;23.62;16.00;;;2.80;99.90;;;;;;7377300;32;20208;-60
2022/12/09 00:12:28;;;;;;;27.52;16.52;;;2.90;99.90;;;;;;7376195;32;20103;-58
2022/12/09 00:16:30;;;;;;;28.50;16.85;;;2.90;99.90;;;;;;7375548;32;20091;-60
2022/12/09 00:20:32;;;;;;;29.55;16.65;;;2.90;99.90;;;;;;7374003;32;20183;-60
2022/12/09 00:24:34;;;;;;;27.85;16.05;;;2.80;99.90;;;;;;7375406;32;20214;-60
2022/12/09 00:28:35;;;;;;;23.20;16.00;;;2.80;99.90;;;;;;7372142;32;20132;-59
2022/12/09 00:32:37;;;;;;;26.05;16.85;;;2.80;99.90;;;;;;7369931;32;20119;-60
2022/12/09 00:36:40;;;;;;;25.77;16.87;;;2.90;99.90;;;;;;7367511;32;20174;-60
2022/12/09 00:40:41;;;;;;;23.75;16.92;;;2.80;99.90;;;;;;7365768;32;20095;-60
2022/12/09 00:44:43;;;;;;;25.15;16.25;;;2.80;99.90;;;;;;7375883;32;20106;-59
2022/12/09 00:48:45;;;;;;;27.70;15.80;;;3.00;99.90;;;;;;7371124;32;20646;-60
2022/12/09 00:52:47;;;;;;;23.45;15.93;;;3.00;99.90;;;;;;7370936;32;20119;-59
2022/12/09 00:56:49;;;;;;;25.35;15.45;;;3.00;99.90;;;;;;7374389;32;20261;-59
2022/12/09 01:00:54;;;;;;;26.73;16.92;;;3.00;99.90;;;;;;7370306;32;20967;-59
2022/12/09 01:04:56;;;;;;;24.90;16.58;;;2.90;99.90;;;;;;7371722;32;20465;-59
2022/12/09 01:08:58;;;;;;;28.55;16.70;;;2.90;99.90;;;;;;7376452;32;20461;-59
2022/12/09 01:13:00;;;;;;;24.23;16.05;;;2.90;99.90;;;;;;7378511;32;20133;-59
2022/12/09 01:17:02;;;;;;;24.25;16.25;;;2.90;99.90;;;;;;7372840;32;20190;-59
2022/12/09 01:21:04;;;;;;;24.45;15.75;;;3.00;99.90;;;;;;7381132;32;20128;-59
2022/12/09 01:25:06;;;;;;;26.00;15.25;;;3.00;99.90;;;;;;7376076;32;20110;-59
2022/12/09 01:29:08;;;;;;;23.87;16.20;;;3.00;99.90;;;;;;7367946;32;20106;-59
2022/12/09 01:33:10;;;;;;;23.75;16.37;;;3.00;99.90;;;;;;7374090;32;20099;-59
2022/12/09 01:37:12;;;;;;;26.52;16.37;;;3.00;99.90;;;;;;7378261;32;20103;-59
2022/12/09 01:41:16;;;;;;;24.30;15.90;;;2.90;99.90;;;;;;7377587;32;20194;-59
2022/12/09 01:45:22;;;;;;;26.48;16.90;;;2.90;99.90;;;;;;7384674;32;20129;-58
2022/12/09 01:49:37;;;;;;;26.52;16.35;;;3.00;99.90;;;;;;7379673;32;20201;-61
2022/12/09 01:53:44;;;;;;;26.62;17.08;;;3.00;99.90;;;;;;7378709;32;20519;-59
2022/12/09 01:57:47;;;;;;;24.58;17.05;;;3.00;99.90;;;;;;7378214;32;20130;-58
2022/12/09 02:01:52;;;;;;;29.05;17.87;;;2.90;99.90;;;;;;7382398;32;20467;-59
2022/12/09 02:05:54;;;;;;;27.67;16.25;;;2.90;99.90;;;;;;7375459;32;20213;-59
2022/12/09 02:09:57;;;;;;;36.58;18.25;;;3.00;99.90;;;;;;7374729;32;20124;-59
2022/12/09 02:14:20;;;;;;;28.45;17.77;;;2.90;99.90;;;;;;7367960;32;20111;-59
2022/12/09 02:18:35;;;;;;;28.65;17.37;;;2.80;99.90;;;;;;7368197;32;20251;-58
2022/12/09 02:22:39;;;;;;;28.60;17.75;;;3.00;99.90;;;;;;7371221;32;20475;-59
2022/12/09 02:26:48;;;;;;;28.90;17.85;;;3.00;99.90;;;;;;7372386;32;20179;-60
2022/12/09 02:31:17;;;;;;;33.10;17.67;;;2.90;99.90;;;;;;7376063;32;20131;-59
2022/12/09 02:35:44;;;;;;;27.45;17.20;;;3.00;99.90;;;;;;7384889;32;20103;-59
2022/12/09 02:39:52;;;;;;;27.52;17.12;;;2.90;99.90;;;;;;7375783;32;20130;-59
2022/12/09 02:44:01;;;;;;;25.67;16.62;;;3.00;99.90;;;;;;7378041;32;20213;-59
2022/12/09 02:48:04;;;;;;;27.23;17.85;;;3.00;99.90;;;;;;7380471;32;20104;-59
2022/12/09 02:52:09;;;;;;;26.40;16.98;;;2.90;99.90;;;;;;7372785;32;20449;-60
2022/12/09 02:56:13;;;;;;;29.77;17.25;;;2.90;99.90;;;;;;7381663;32;20446;-59
2022/12/09 03:00:15;;;;;;;25.33;17.58;;;2.80;99.90;;;;;;7377015;32;20235;-59
2022/12/09 03:04:21;;;;;;;25.55;16.45;;;2.80;99.90;;;;;;7378130;32;20213;-59
2022/12/09 03:08:26;;;;;;;25.77;16.50;;;3.00;99.90;;;;;;7380787;32;20119;-59
2022/12/09 03:12:32;;;;;;;26.70;15.75;;;2.90;99.90;;;;;;7376258;32;20379;-59
2022/12/09 03:17:01;;;;;;;24.87;13.95;;;2.90;99.90;;;;;;7378677;32;20153;-58
2022/12/09 03:21:04;;;;;;;19.67;12.55;;;3.00;99.90;;;;;;7379745;32;20406;-59
2022/12/09 03:25:14;;;;;;;19.83;12.95;;;2.90;99.90;;;;;;7379594;32;20140;-59
2022/12/09 03:29:18;;;;;;;23.15;14.35;;;2.90;99.90;;;;;;7382995;32;20107;-59
2022/12/09 03:33:23;;;;;;;21.15;13.85;;;2.90;99.90;;;;;;7372303;32;20768;-58
2022/12/09 03:37:26;;;;;;;22.75;14.73;;;2.90;99.90;;;;;;7385576;32;20125;-59
2022/12/09 03:41:31;;;;;;;23.12;15.45;;;2.90;99.90;;;;;;7384153;32;20543;-59
2022/12/09 03:45:33;;;;;;;25.27;15.77;;;2.90;99.90;;;;;;7378414;32;20127;-59
2022/12/09 03:49:37;;;;;;;20.65;13.70;;;2.90;99.90;;;;;;7368710;32;20457;-59
2022/12/09 03:53:49;;;;;;;19.75;13.75;;;2.90;99.90;;;;;;7381149;32;20127;-59
2022/12/09 03:57:55;;;;;;;21.23;14.20;;;2.90;99.90;;;;;;7374472;32;20221;-59
2022/12/09 04:01:57;;;;;;;26.25;15.05;;;2.90;99.90;;;;;;7375867;32;20107;-59
2022/12/09 04:05:59;;;;;;;21.58;14.27;;;2.80;99.90;;;;;;7370902;32;20240;-59
2022/12/09 04:10:02;;;;;;;24.08;14.43;;;2.80;99.90;;;;;;7375973;32;20133;-59
2022/12/09 04:14:04;;;;;;;24.70;15.57;;;2.80;99.90;;;;;;7383868;32;20129;-59
2022/12/09 04:18:12;;;;;;;25.70;15.32;;;2.80;99.90;;;;;;7376701;32;20336;-59
2022/12/09 04:22:14;;;;;;;20.85;14.87;;;2.60;99.90;;;;;;7366811;32;20111;-59
2022/12/09 04:26:19;;;;;;;23.00;15.88;;;2.60;99.90;;;;;;7380355;32;20106;-59
2022/12/09 04:30:21;;;;;;;22.10;14.57;;;2.50;99.90;;;;;;7380335;32;20098;-59
2022/12/09 04:34:23;;;;;;;24.92;15.02;;;2.40;99.90;;;;;;7370800;32;20210;-59
2022/12/09 04:38:25;;;;;;;23.20;15.07;;;2.40;99.90;;;;;;7382138;32;20279;-59
2022/12/09 04:42:28;;;;;;;27.85;16.05;;;2.40;99.90;;;;;;7381437;32;20145;-59
2022/12/09 04:46:30;;;;;;;25.73;15.10;;;2.30;99.90;;;;;;7378695;32;20133;-59
2022/12/09 04:50:32;;;;;;;23.50;15.93;;;2.30;99.90;;;;;;7380039;32;20141;-59
2022/12/09 04:54:34;;;;;;;25.35;16.87;;;2.20;99.90;;;;;;7380296;32;20141;-59
2022/12/09 04:58:36;;;;;;;25.27;15.90;;;2.10;99.90;;;;;;7377078;32;20129;-59
2022/12/09 05:02:38;;;;;;;29.73;16.60;;;2.00;99.90;;;;;;7377184;32;20540;-59
2022/12/09 05:06:40;;;;;;;24.35;16.00;;;2.00;99.90;;;;;;7376426;32;20182;-59
2022/12/09 05:10:48;;;;;;;24.63;16.30;;;2.00;99.90;;;;;;7380414;32;20121;-59
2022/12/09 05:14:50;;;;;;;24.52;16.23;;;2.00;99.90;;;;;;7376665;32;20114;-59
2022/12/09 05:18:52;;;;;;;22.67;15.00;;;1.90;99.90;;;;;;7372870;32;20121;-59
2022/12/09 05:22:55;;;;;;;25.40;15.65;;;1.80;99.90;;;;;;7371469;32;21344;-58
2022/12/09 05:26:57;;;;;;;25.17;15.27;;;1.80;99.90;;;;;;7377715;32;20129;-59
2022/12/09 05:31:08;;;;;;;26.17;15.55;;;1.90;99.90;;;;;;7370553;32;20121;-59
2022/12/09 05:35:09;;;;;;;25.95;16.02;;;1.90;99.90;;;;;;7373148;32;20129;-59
2022/12/09 05:39:11;;;;;;;25.25;16.65;;;1.90;99.90;;;;;;7380052;32;20190;-59
2022/12/09 05:43:13;;;;;;;25.20;17.00;;;1.80;99.90;;;;;;7372483;32;20136;-59
2022/12/09 05:47:15;;;;;;;27.75;17.25;;;1.80;99.90;;;;;;7375097;32;20189;-59
2022/12/09 05:51:26;;;;;;;23.87;16.10;;;1.80;99.90;;;;;;7376363;32;20134;-59
2022/12/09 05:55:29;;;;;;;26.77;17.10;;;1.80;99.90;;;;;;7379207;32;20218;-59
2022/12/09 05:59:31;;;;;;;22.42;14.98;;;1.60;99.90;;;;;;7371596;32;20210;-60
2022/12/09 06:03:33;;;;;;;29.52;16.58;;;1.50;99.90;;;;;;7367228;32;20110;-59
2022/12/09 06:07:36;;;;;;;30.30;17.45;;;1.30;99.90;;;;;;7370696;32;20273;-59
2022/12/09 06:11:39;;;;;;;23.50;16.10;;;1.20;99.90;;;;;;7365032;32;20201;-59
2022/12/09 06:15:41;;;;;;;22.65;15.25;;;1.10;99.90;;;;;;7364291;32;20092;-60
2022/12/09 06:19:43;;;;;;;26.95;17.95;;;0.90;99.90;;;;;;7365580;32;20213;-60
2022/12/09 06:23:46;;;;;;;28.87;17.67;;;0.80;99.90;;;;;;7373713;32;20247;-60
2022/12/09 06:27:50;;;;;;;25.40;16.37;;;0.60;99.90;;;;;;7362442;32;20882;-60
2022/12/09 06:31:52;;;;;;;25.15;16.00;;;0.60;99.90;;;;;;7363096;32;21088;-60
2022/12/09 06:35:54;;;;;;;22.52;15.10;;;0.50;99.90;;;;;;7368256;32;21602;-60
2022/12/09 06:39:56;;;;;;;25.02;14.60;;;0.40;99.90;;;;;;7361589;32;20841;-61
2022/12/09 06:43:59;;;;;;;21.17;14.38;;;0.30;99.90;;;;;;7366461;32;20796;-60
2022/12/09 06:48:01;;;;;;;24.42;14.82;;;0.20;99.90;;;;;;7362896;32;20259;-60
2022/12/09 06:52:04;;;;;;;20.90;14.15;;;0.10;99.90;;;;;;7368001;32;20186;-61
2022/12/09 06:56:07;;;;;;;22.77;15.13;;;0.10;99.90;;;;;;7370840;32;20201;-60
2022/12/09 07:00:14;;;;;;;22.20;15.35;;;0.00;99.90;;;;;;7369664;32;20182;-61
2022/12/09 07:04:16;;;;;;;21.30;14.40;;;-0.10;99.90;;;;;;7351139;32;20526;-61
2022/12/09 07:08:18;;;;;;;19.90;13.73;;;-0.10;99.90;;;;;;7364569;32;20270;-61
2022/12/09 07:12:20;;;;;;;22.58;15.07;;;-0.10;99.90;;;;;;7368788;32;20277;-62
2022/12/09 07:16:23;;;;;;;26.45;15.48;;;-0.20;99.90;;;;;;7370203;32;20104;-60
2022/12/09 07:20:25;;;;;;;23.73;15.13;;;-0.20;99.90;;;;;;7374157;32;20095;-60
2022/12/09 07:24:27;;;;;;;23.83;16.48;;;-0.20;99.90;;;;;;7380820;32;20533;-60
2022/12/09 07:28:29;;;;;;;26.75;16.92;;;-0.10;99.90;;;;;;7382616;32;20233;-62
2022/12/09 07:32:31;;;;;;;25.23;17.08;;;0.00;99.90;;;;;;7372785;32;20182;-63
2022/12/09 07:36:34;;;;;;;35.00;18.48;;;0.10;99.90;;;;;;7379555;32;20145;-62
2022/12/09 07:40:37;;;;;;;33.75;17.67;;;0.10;99.90;;;;;;7383976;32;20189;-62
2022/12/09 07:44:39;;;;;;;32.20;18.08;;;0.30;99.90;;;;;;7380298;32;20104;-62
2022/12/09 07:48:41;;;;;;;29.58;18.33;;;0.40;99.90;;;;;;7382151;32;20115;-61
2022/12/09 07:52:44;;;;;;;29.08;18.37;;;0.50;99.90;;;;;;7375981;32;20213;-63
2022/12/09 07:56:46;;;;;;;29.92;18.25;;;0.50;99.90;;;;;;7378999;32;20565;-62
2022/12/09 08:00:48;;;;;;;30.73;18.87;;;0.50;99.90;;;;;;7383676;32;20159;-61
2022/12/09 08:04:50;;;;;;;28.35;18.08;;;0.50;99.90;;;;;;7382647;32;20115;-61
2022/12/09 08:08:52;;;;;;;28.17;18.30;;;0.60;99.90;;;;;;7376125;32;20100;-62
2022/12/09 08:12:54;;;;;;;26.33;17.98;;;0.60;99.90;;;;;;7378586;32;20160;-62
2022/12/09 08:16:57;;;;;;;32.15;19.20;;;0.70;99.90;;;;;;7375136;32;20126;-60
2022/12/09 08:21:03;;;;;;;29.80;18.08;;;0.80;99.90;;;;;;7357403;32;21288;-62
2022/12/09 08:25:05;;;;;;;32.73;18.83;;;0.90;99.90;;;;;;7359903;32;20261;-61
2022/12/09 08:29:10;;;;;;;28.65;19.27;;;0.90;99.90;;;;;;7364365;32;20859;-61
2022/12/09 08:33:12;;;;;;;29.95;18.92;;;1.00;99.90;;;;;;7369005;32;20216;-61
2022/12/09 08:37:14;;;;;;;30.50;19.27;;;1.10;99.90;;;;;;7365112;32;20631;-62
2022/12/09 08:41:33;;;;;;;33.33;19.83;;;1.20;99.90;;;;;;7363975;32;20246;-59
2022/12/09 08:45:40;;;;;;;36.33;20.42;;;1.20;99.90;;;;;;7370908;32;20250;-58
2022/12/09 08:49:42;;;;;;;33.08;21.02;;;1.20;99.90;;;;;;7357976;32;20221;-60
2022/12/09 08:53:44;;;;;;;37.45;22.13;;;1.30;99.90;;;;;;7365380;32;20759;-62
2022/12/09 08:57:46;;;;;;;36.47;22.50;;;1.20;99.90;;;;;;7360800;32;21209;-59
2022/12/09 09:01:49;;;;;;;40.30;22.58;;;1.40;99.90;;;;;;7367039;32;20186;-60
2022/12/09 09:05:51;;;;;;;36.06;22.54;;;1.50;99.90;;;;;;7358299;32;20190;-60
2022/12/09 09:09:53;;;;;;;36.10;22.52;;;1.60;99.90;;;;;;7359878;32;20126;-59
2022/12/09 09:13:55;;;;;;;31.87;21.50;;;1.80;99.90;;;;;;7361413;32;20194;-62
2022/12/09 09:17:57;;;;;;;36.72;20.25;;;1.70;99.90;;;;;;7358057;32;20256;-61
2022/12/09 09:21:59;;;;;;;31.83;20.42;;;1.70;99.90;;;;;;7360725;32;20204;-61
2022/12/09 09:26:02;;;;;;;35.17;21.15;;;1.80;99.90;;;;;;7360889;32;20234;-60
2022/12/09 09:30:07;;;;;;;37.20;21.45;;;2.00;99.90;;;;;;7359396;32;20185;-60
2022/12/09 09:34:10;;;;;;;33.08;20.65;;;2.00;99.90;;;;;;7360538;32;20186;-61
2022/12/09 09:38:12;;;;;;;32.17;19.62;;;2.00;99.90;;;;;;7359502;32;20182;-61
2022/12/09 09:42:26;;;;;;;30.35;19.60;;;2.10;99.90;;;;;;7363087;32;20248;-61
2022/12/09 09:46:37;;;;;;;31.27;19.37;;;2.20;99.90;;;;;;7367389;32;20204;-61
2022/12/09 09:50:57;;;;;;;28.85;18.98;;;2.20;99.90;;;;;;7367547;32;20269;-61
2022/12/09 09:55:05;;;;;;;31.37;21.45;;;2.30;99.90;;;;;;7366666;32;20208;-61
2022/12/09 09:59:18;;;;;;;31.67;19.87;;;2.30;99.90;;;;;;7365312;32;20242;-61
2022/12/09 10:03:26;;;;;;;32.58;20.45;;;2.40;99.90;;;;;;7366698;32;21001;-60
2022/12/09 10:07:38;;;;;;;34.00;20.50;;;2.40;99.90;;;;;;7362338;32;20220;-60
2022/12/09 10:12:07;;;;;;;31.52;20.75;;;2.30;99.90;;;;;;7364071;32;21053;-61
2022/12/09 10:16:29;;;;;;;32.67;21.55;;;2.40;99.90;;;;;;7358957;32;20457;-61
2022/12/09 10:20:32;;;;;;;33.65;20.35;;;2.50;99.90;;;;;;7362203;32;20552;-61
2022/12/09 10:24:34;;;;;;;32.00;20.58;;;2.60;99.90;;;;;;7361400;32;20610;-61
2022/12/09 10:28:45;;;;;;;36.15;20.98;;;2.60;99.90;;;;;;7367326;32;20867;-61
2022/12/09 10:32:47;;;;;;;34.55;21.00;;;2.60;99.90;;;;;;7365208;32;20186;-62
2022/12/09 10:36:50;;;;;;;30.55;20.98;;;2.60;99.90;;;;;;7359030;32;20177;-62
2022/12/09 10:41:10;;;;;;;30.23;19.45;;;2.70;99.90;;;;;;7359316;32;20170;-62
2022/12/09 10:45:13;;;;;;;32.20;20.62;;;2.60;99.90;;;;;;7362742;32;20658;-63
2022/12/09 10:49:20;;;;;;;32.53;19.23;;;2.80;99.90;;;;;;7366155;32;20576;-62
2022/12/09 10:53:23;;;;;;;34.60;18.60;;;2.90;99.90;;;;;;7360543;32;20186;-63
2022/12/09 10:57:28;;;;;;;29.25;18.92;;;3.10;99.90;;;;;;7353439;32;20214;-63
2022/12/09 11:01:56;;;;;;;23.45;16.60;;;3.30;99.90;;;;;;7354559;32;20902;-62
2022/12/09 11:06:02;;;;;;;24.83;15.10;;;3.30;99.90;;;;;;7367774;32;20182;-61
2022/12/09 11:10:15;;;;;;;27.92;15.15;;;3.20;99.90;;;;;;7368395;32;20250;-61
2022/12/09 11:14:21;;;;;;;24.77;15.65;;;3.10;99.90;;;;;;7364792;32;20701;-61
2022/12/09 11:18:36;;;;;;;26.25;14.40;;;3.10;99.90;;;;;;7368507;32;20272;-62
2022/12/09 11:22:41;;;;;;;19.92;13.38;;;3.00;99.90;;;;;;7362942;32;20389;-61
2022/12/09 11:26:43;;;;;;;26.10;15.93;;;3.00;99.90;;;;;;7375041;32;20713;-62
2022/12/09 11:30:50;;;;;;;26.40;15.45;;;3.10;99.90;;;;;;7378786;32;20111;-62
2022/12/09 11:35:25;;;;;;;21.90;13.15;;;3.10;99.90;;;;;;7384085;32;20121;-63
2022/12/09 11:39:30;;;;;;;22.05;13.43;;;3.10;99.90;;;;;;7373965;32;20697;-62
2022/12/09 11:43:47;;;;;;;19.98;12.75;;;3.50;99.90;;;;;;7375119;32;20424;-62
2022/12/09 11:47:50;;;;;;;19.08;11.05;;;3.70;99.90;;;;;;7373327;32;20224;-64
2022/12/09 11:52:15;;;;;;;18.33;11.10;;;3.80;99.90;;;;;;7362131;32;20190;-62
2022/12/09 11:56:21;;;;;;;17.00;9.25;;;3.80;99.90;;;;;;7358192;32;20212;-62
2022/12/09 12:00:36;;;;;;;16.98;9.70;;;3.70;99.90;;;;;;7366056;32;20222;-63
2022/12/09 12:04:53;;;;;;;16.30;10.55;;;3.60;99.90;;;;;;7362198;32;20208;-61
2022/12/09 12:09:09;;;;;;;20.10;11.02;;;3.60;99.90;;;;;;7377552;32;20122;-61
2022/12/09 12:13:14;;;;;;;16.98;9.68;;;3.80;99.90;;;;;;7379458;32;20137;-61
2022/12/09 12:17:33;;;;;;;13.88;9.05;;;3.80;99.90;;;;;;7380717;32;20103;-62
2022/12/09 12:22:13;;;;;;;17.02;9.90;;;3.70;99.90;;;;;;7373938;32;20195;-62
2022/12/09 12:26:17;;;;;;;17.60;10.57;;;3.70;99.90;;;;;;7368000;32;20129;-60
2022/12/09 12:30:22;;;;;;;19.08;12.37;;;3.70;99.90;;;;;;7366299;32;20257;-60
2022/12/09 12:34:43;;;;;;;20.30;12.52;;;3.60;99.90;;;;;;7364040;32;20233;-61
2022/12/09 12:39:19;;;;;;;20.83;12.77;;;3.60;99.90;;;;;;7358885;32;20182;-61
2022/12/09 12:48:42;;;;;;;17.15;11.25;;;3.60;99.90;;;;;;7360080;32;20186;-62
2022/12/09 12:52:59;;;;;;;19.92;12.63;;;3.40;99.90;;;;;;7347094;32;20336;-60
2022/12/09 12:57:18;;;;;;;24.57;13.80;;;3.40;99.90;;;;;;7371554;32;20125;-60
2022/12/09 13:01:41;;;;;;;20.20;13.05;;;3.40;99.90;;;;;;7373216;32;20522;-60
2022/12/09 13:05:49;;;;;;;17.27;10.68;;;3.40;99.90;;;;;;7372519;32;20248;-62
2022/12/09 13:09:53;;;;;;;16.27;10.32;;;3.40;99.90;;;;;;7370758;32;20201;-60
2022/12/09 13:14:02;;;;;;;20.50;12.37;;;3.40;99.90;;;;;;7378043;32;20128;-61
2022/12/09 13:18:34;;;;;;;19.10;11.45;;;3.50;99.90;;;;;;7375450;32;20148;-60
2022/12/09 13:22:49;;;;;;;19.60;11.43;;;3.60;99.90;;;;;;7369895;32;20202;-62
2022/12/09 13:27:02;;;;;;;15.30;9.60;;;3.40;99.90;;;;;;7374770;32;20137;-61
2022/12/09 13:31:10;;;;;;;15.13;9.07;;;3.40;99.90;;;;;;7369807;32;20156;-62
2022/12/09 13:35:25;;;;;;;21.58;10.77;;;3.40;99.90;;;;;;7359926;32;20603;-67
2022/12/09 13:39:39;;;;;;;15.52;8.82;;;3.40;99.90;;;;;;7356691;32;20509;-61
2022/12/09 13:43:41;;;;;;;13.95;8.95;;;3.40;99.90;;;;;;7354907;32;20215;-62
2022/12/09 13:47:43;;;;;;;14.70;8.98;;;3.40;99.90;;;;;;7359679;32;20246;-61
2022/12/09 13:51:48;;;;;;;18.12;10.00;;;3.30;99.90;;;;;;7361411;32;20211;-60
2022/12/09 13:55:54;;;;;;;15.32;9.38;;;3.30;99.90;;;;;;7363640;32;20576;-60
2022/12/09 14:00:01;;;;;;;11.30;8.07;;;3.40;99.90;;;;;;7365903;32;20140;-62
2022/12/09 14:04:09;;;;;;;;;;;3.30;99.90;;;;;;7364720;32;20480;-61
2022/12/09 14:08:23;;;;;;;14.85;9.15;;;3.20;99.90;;;;;;7363646;32;20519;-61
2022/12/09 14:12:24;;;;;;;15.98;8.63;;;3.20;99.90;;;;;;7360816;32;20212;-63
2022/12/09 14:16:26;;;;;;;17.17;9.95;;;3.20;99.90;;;;;;7366741;32;20118;-61
2022/12/09 14:20:29;;;;;;;14.63;9.18;;;3.10;99.90;;;;;;7366788;32;20606;-61
2022/12/09 14:24:31;;;;;;;15.48;10.38;;;3.00;99.90;;;;;;7363696;32;20231;-61
2022/12/09 14:28:33;;;;;;;13.88;9.20;;;3.00;99.90;;;;;;7369314;32;20205;-61
2022/12/09 14:32:53;;;;;;;16.05;10.07;;;2.90;99.90;;;;;;7366572;32;20590;-62
2022/12/09 14:37:18;;;;;;;13.15;9.18;;;2.70;99.90;;;;;;7369281;32;20107;-60
2022/12/09 14:41:52;;;;;;;16.25;9.88;;;2.50;99.90;;;;;;7376991;32;20107;-60
2022/12/09 14:45:59;;;;;;;17.95;10.93;;;2.40;99.90;;;;;;7379964;32;20098;-61
2022/12/09 14:50:13;;;;;;;17.30;10.73;;;2.30;99.90;;;;;;7382714;32;20916;-61
2022/12/09 14:54:21;;;;;;;18.80;11.93;;;2.20;99.90;;;;;;7379883;32;20128;-60
2022/12/09 14:58:25;;;;;;;20.55;13.45;;;2.10;99.90;;;;;;7376788;32;20106;-60
2022/12/09 15:02:29;;;;;;;24.20;14.55;;;2.00;99.90;;;;;;7362722;32;20217;-60
2022/12/09 15:06:31;;;;;;;23.65;14.87;;;1.80;99.90;;;;;;7359631;32;20276;-60
2022/12/09 15:10:35;;;;;;;22.15;12.43;;;1.70;99.90;;;;;;7369627;32;20186;-59
2022/12/09 15:14:39;;;;;;;24.37;13.50;;;1.50;99.90;;;;;;7366675;32;20650;-62
2022/12/09 15:18:42;;;;;;;19.17;12.07;;;1.40;99.90;;;;;;7355468;32;20601;-61
2022/12/09 15:22:50;;;;;;;18.77;11.65;;;1.20;99.90;;;;;;7365789;32;20212;-61
2022/12/09 15:27:02;;;;;;;18.83;11.12;;;1.10;99.90;;;;;;7369950;32;20206;-61
2022/12/09 15:31:12;;;;;;;23.33;12.07;;;1.00;99.90;;;;;;7365796;32;20269;-61
2022/12/09 15:35:18;;;;;;;17.60;11.70;;;0.80;99.90;;;;;;7358781;32;20321;-60
2022/12/09 15:39:20;;;;;;;20.43;13.10;;;0.70;99.90;;;;;;7361847;32;20208;-60
2022/12/09 15:43:22;;;;;;;19.27;12.15;;;0.60;99.90;;;;;;7365821;32;20213;-60
2022/12/09 15:47:45;;;;;;;20.92;12.48;;;0.50;99.90;;;;;;7366124;32;20187;-59
2022/12/09 15:51:49;;;;;;;19.70;12.88;;;0.40;99.90;;;;;;7368679;32;20847;-61
2022/12/09 15:56:10;;;;;;;22.08;13.18;;;0.30;99.90;;;;;;7362159;32;20191;-60
2022/12/09 16:00:12;;;;;;;25.30;12.45;;;0.20;99.90;;;;;;7369276;32;20186;-60
2022/12/09 16:04:18;;;;;;;20.08;12.00;;;0.10;99.90;;;;;;7365477;32;20186;-60
2022/12/09 16:08:21;;;;;;;21.75;11.57;;;0.00;99.90;;;;;;7363695;32;20573;-60
2022/12/09 16:12:28;;;;;;;21.45;12.20;;;-0.10;99.90;;;;;;7362326;32;20220;-59
2022/12/09 16:16:59;;;;;;;19.60;12.05;;;-0.20;99.90;;;;;;7363281;32;20261;-58
2022/12/09 16:21:24;;;;;;;21.20;12.57;;;-0.10;99.90;;;;;;7368324;32;20220;-59
2022/12/09 16:25:32;;;;;;;21.60;12.48;;;-0.20;99.90;;;;;;7366118;32;20633;-59
2022/12/09 16:29:35;;;;;;;22.95;12.63;;;-0.20;99.90;;;;;;7361556;32;20228;-59
2022/12/09 16:33:38;;;;;;;20.12;12.00;;;-0.30;99.90;;;;;;7362872;32;20237;-59
2022/12/09 16:38:01;;;;;;;27.20;14.85;;;-0.40;99.90;;;;;;7365701;32;20198;-60
2022/12/09 16:42:03;;;;;;;23.95;13.80;;;-0.40;99.90;;;;;;7356282;32;20103;-61
2022/12/09 16:46:13;;;;;;;22.33;13.55;;;-0.40;99.90;;;;;;7359003;32;20183;-60
2022/12/09 16:50:15;;;;;;;24.30;14.55;;;-0.50;99.90;;;;;;7365603;32;20198;-61
2022/12/09 16:54:17;;;;;;;22.95;15.00;;;-0.50;99.90;;;;;;7361362;32;20177;-60
2022/12/09 16:58:22;;;;;;;25.30;16.23;;;-0.40;99.90;;;;;;7361845;32;20130;-60
2022/12/09 17:02:34;;;;;;;31.33;17.80;;;-0.40;99.90;;;;;;7375908;32;20110;-60
2022/12/09 17:06:35;;;;;;;30.73;17.55;;;-0.40;99.90;;;;;;7375651;32;20114;-60
2022/12/09 17:10:39;;;;;;;26.25;15.40;;;-0.30;99.90;;;;;;7371597;32;20277;-60
2022/12/09 17:14:40;;;;;;;28.35;16.35;;;-0.20;99.90;;;;;;7378193;32;20469;-60
2022/12/09 17:18:42;;;;;;;29.80;17.02;;;0.00;99.90;;;;;;7367262;32;20103;-60
2022/12/09 17:22:44;;;;;;;30.12;17.20;;;0.10;99.90;;;;;;7370396;32;20746;-61
2022/12/09 17:26:45;;;;;;;33.60;20.45;;;0.20;99.90;;;;;;7371034;32;20629;-60
2022/12/09 17:30:47;;;;;;;46.03;26.20;;;0.20;99.90;;;;;;7367600;32;20227;-60
2022/12/09 17:34:49;;;;;;;37.65;22.75;;;0.30;99.90;;;;;;7383112;32;20153;-60
2022/12/09 17:38:51;;;;;;;30.42;18.42;;;0.60;99.90;;;;;;7379420;32;20132;-59
2022/12/09 17:42:53;;;;;;;27.10;16.85;;;0.40;99.90;;;;;;7375744;32;20216;-60
2022/12/09 17:46:54;;;;;;;32.60;18.12;;;0.50;99.90;;;;;;7378571;32;20132;-60
2022/12/09 17:50:56;;;;;;;28.67;17.87;;;0.60;99.90;;;;;;7377192;32;20100;-60
2022/12/09 17:54:58;;;;;;;31.02;18.10;;;0.60;99.90;;;;;;7375312;32;20250;-60
2022/12/09 17:59:07;;;;;;;33.33;18.67;;;0.60;99.90;;;;;;7379875;32;20179;-60
2022/12/09 18:03:08;;;;;;;28.15;17.92;;;0.60;99.90;;;;;;7373950;32;20252;-59
2022/12/09 18:07:18;;;;;;;39.65;23.17;;;0.70;99.90;;;;;;7373357;32;20386;-59
2022/12/09 18:11:21;;;;;;;50.50;27.83;;;0.80;99.90;;;;;;7378362;32;20099;-59
2022/12/09 18:15:23;;;;;;;30.65;19.87;;;0.70;99.90;;;;;;7371923;32;20128;-60
2022/12/09 18:19:24;;;;;;;32.15;20.08;;;0.80;99.90;;;;;;7374573;32;20103;-60
2022/12/09 18:23:26;;;;;;;30.70;20.10;;;0.80;99.90;;;;;;7379590;32;20144;-60
2022/12/09 18:27:28;;;;;;;47.85;26.67;;;0.80;99.90;;;;;;7375988;32;20535;-60
2022/12/09 18:31:30;;;;;;;54.00;29.37;;;0.80;99.90;;;;;;7376599;32;20510;-59
2022/12/09 18:35:32;;;;;;;36.05;22.10;;;0.80;99.90;;;;;;7376535;32;20233;-60
2022/12/09 18:39:35;;;;;;;39.45;23.42;;;0.90;99.90;;;;;;7375807;32;20111;-60
2022/12/09 18:43:39;;;;;;;44.03;25.62;;;0.80;99.90;;;;;;7373796;32;20271;-60
2022/12/09 18:47:41;;;;;;;38.83;25.12;;;0.90;99.90;;;;;;7378142;32;20149;-60
2022/12/09 18:51:44;;;;;;;41.00;24.55;;;0.90;99.90;;;;;;7372332;32;20126;-59
2022/12/09 18:55:45;;;;;;;53.05;31.10;;;0.90;99.90;;;;;;7370552;32;20463;-60
2022/12/09 18:59:49;;;;;;;46.75;28.67;;;0.90;99.90;;;;;;7373202;32;20165;-60
2022/12/09 19:03:53;;;;;;;51.60;32.28;;;1.00;99.90;;;;;;7380643;32;20099;-59
2022/12/09 19:07:54;;;;;;;45.58;28.62;;;1.00;99.90;;;;;;7367309;32;20133;-60
2022/12/09 19:11:57;;;;;;;49.20;29.75;;;1.10;99.90;;;;;;7384482;32;20845;-60
2022/12/09 19:16:05;;;;;;;44.90;27.65;;;1.00;99.90;;;;;;7379385;32;20260;-60
2022/12/09 19:20:07;;;;;;;43.20;25.92;;;1.10;99.90;;;;;;7380706;32;20167;-60
2022/12/09 19:24:13;;;;;;;45.10;27.20;;;1.10;99.90;;;;;;7378249;32;20156;-60
2022/12/09 19:28:16;;;;;;;42.53;26.17;;;1.10;99.90;;;;;;7378677;32;20262;-60
2022/12/09 19:32:18;;;;;;;43.50;25.42;;;1.20;99.90;;;;;;7380185;32;20658;-60
2022/12/09 19:36:40;;;;;;;41.72;24.87;;;1.10;99.90;;;;;;7376302;32;20613;-61
2022/12/09 19:40:41;;;;;;;46.13;25.20;;;1.10;99.90;;;;;;7379101;32;20129;-60
2022/12/09 19:44:43;;;;;;;50.28;27.15;;;1.00;99.90;;;;;;7380477;32;20128;-59
2022/12/09 19:49:02;;;;;;;56.47;28.80;;;0.90;99.90;;;;;;7377102;32;20123;-60
2022/12/09 19:53:04;;;;;;;50.33;28.50;;;0.90;99.90;;;;;;7387456;32;20103;-59
2022/12/09 19:57:06;;;;;;;51.28;29.92;;;0.80;99.90;;;;;;7379909;32;20565;-60
2022/12/09 20:01:10;;;;;;;58.42;31.30;;;0.80;99.90;;;;;;7382347;32;20566;-60
2022/12/09 20:05:11;;;;;;;57.03;32.05;;;0.80;99.90;;;;;;7375707;32;20129;-60
2022/12/09 20:09:22;;;;;;;56.60;32.00;;;0.80;99.90;;;;;;7378079;32;20110;-60
2022/12/09 20:13:24;;;;;;;51.63;29.15;;;0.80;99.90;;;;;;7376846;32;20103;-59
2022/12/09 20:17:33;;;;;;;56.53;30.75;;;0.90;99.90;;;;;;7374574;32;20149;-59
2022/12/09 20:21:36;;;;;;;53.08;28.87;;;0.70;99.90;;;;;;7379477;32;20106;-60
2022/12/09 20:25:38;;;;;;;57.58;30.02;;;0.80;99.90;;;;;;7380974;32;20122;-60
2022/12/09 20:29:39;;;;;;;57.05;29.75;;;0.70;99.90;;;;;;7376852;32;20219;-60
2022/12/09 20:33:42;;;;;;;57.62;30.75;;;0.70;99.90;;;;;;7371215;32;20114;-59
2022/12/09 20:37:43;;;;;;;54.50;30.17;;;0.60;99.90;;;;;;7369954;32;20111;-59
2022/12/09 20:41:46;;;;;;;53.33;29.63;;;0.60;99.90;;;;;;7380548;32;20538;-59
2022/12/09 20:45:48;;;;;;;60.53;30.75;;;0.60;99.90;;;;;;7378994;32;20099;-60
2022/12/09 20:49:50;;;;;;;59.28;32.15;;;0.60;99.90;;;;;;7378579;32;20193;-60
2022/12/09 20:53:52;;;;;;;61.47;31.30;;;0.50;99.90;;;;;;7378667;32;20110;-60
2022/12/09 20:57:54;;;;;;;62.53;30.80;;;0.40;99.90;;;;;;7378465;32;20137;-61
2022/12/09 21:01:56;;;;;;;55.17;29.83;;;0.30;99.90;;;;;;7380584;32;20486;-60
2022/12/09 21:05:57;;;;;;;57.42;31.02;;;0.30;99.90;;;;;;7379435;32;20540;-59
2022/12/09 21:09:59;;;;;;;58.65;30.67;;;0.30;99.90;;;;;;7374128;32;20246;-59